createdAt,value
2023-05-25T00:02:24.568Z,10.10
2023-05-25T00:04:52.869Z,9.23
2023-05-25T00:07:20.889Z,9.20
2023-05-25T00:09:48.868Z,9.60
2023-05-25T00:12:16.798Z,9.70
2023-05-25T00:14:46.333Z,8.37
2023-05-25T00:17:14.437Z,7.83
2023-05-25T00:19:44.119Z,8.07
2023-05-25T00:22:12.376Z,7.88
2023-05-25T00:24:41.400Z,7.93
2023-05-25T00:27:09.823Z,7.80
2023-05-25T00:29:37.722Z,8.40
2023-05-25T00:32:08.019Z,8.50
2023-05-25T00:34:36.306Z,7.77
2023-05-25T00:37:04.403Z,8.27
2023-05-25T00:39:32.382Z,8.00
2023-05-25T00:42:03.671Z,8.03
2023-05-25T00:44:32.195Z,8.40
2023-05-25T00:47:00.568Z,8.17
2023-05-25T00:49:32.724Z,8.40
2023-05-25T00:52:00.875Z,7.70
2023-05-25T00:54:28.807Z,7.77
2023-05-25T00:56:58.410Z,8.20
2023-05-25T00:59:35.719Z,9.53
2023-05-25T01:02:08.633Z,8.37
2023-05-25T01:04:45.458Z,8.97
2023-05-25T01:07:18.815Z,8.23
2023-05-25T01:09:47.797Z,8.53
2023-05-25T01:12:16.730Z,8.57
2023-05-25T01:14:48.137Z,9.30
2023-05-25T01:17:16.851Z,9.00
2023-05-25T01:19:51.955Z,9.03
2023-05-25T01:22:33.036Z,8.93
2023-05-25T01:25:05.152Z,8.87
2023-05-25T01:27:39.524Z,8.20
2023-05-25T01:30:13.809Z,8.10
2023-05-25T01:32:43.358Z,8.77
2023-05-25T01:35:12.262Z,8.33
2023-05-25T01:37:48.937Z,9.50
2023-05-25T01:40:17.196Z,9.37
2023-05-25T01:42:45.164Z,8.63
2023-05-25T01:45:15.320Z,9.00
2023-05-25T01:47:50.986Z,8.90
2023-05-25T01:50:25.156Z,9.10
2023-05-25T01:53:00.737Z,8.60
2023-05-25T01:55:33.786Z,9.03
2023-05-25T01:58:03.704Z,9.77
2023-05-25T02:00:34.309Z,9.27
2023-05-25T02:03:02.763Z,9.93
2023-05-25T02:05:31.189Z,10.40
2023-05-25T02:08:00.450Z,9.60
2023-05-25T02:10:32.972Z,9.97
2023-05-25T02:13:00.966Z,10.60
2023-05-25T02:15:32.965Z,10.57
2023-05-25T02:18:01.198Z,10.43
2023-05-25T02:20:31.755Z,10.47
2023-05-25T02:23:01.195Z,10.57
2023-05-25T02:25:29.166Z,9.57
2023-05-25T02:27:57.055Z,10.40
2023-05-25T02:30:25.141Z,11.27
2023-05-25T02:32:56.545Z,10.60
2023-05-25T02:35:24.638Z,10.27
2023-05-25T02:37:52.573Z,10.60
2023-05-25T02:40:21.812Z,9.90
2023-05-25T02:42:49.700Z,8.70
2023-05-25T02:45:18.150Z,8.80
2023-05-25T02:47:46.727Z,9.10
2023-05-25T02:50:14.918Z,9.67
2023-05-25T02:52:46.791Z,9.03
2023-05-25T02:55:14.767Z,9.07
2023-05-25T02:57:45.105Z,10.30
2023-05-25T03:00:19.452Z,10.30
2023-05-25T03:02:49.023Z,10.33
2023-05-25T03:05:19.654Z,10.80
2023-05-25T03:07:49.106Z,10.30
2023-05-25T03:10:17.022Z,9.70
2023-05-25T03:12:46.626Z,11.23
2023-05-25T03:15:14.628Z,10.87
2023-05-25T03:17:42.548Z,10.30
2023-05-25T03:20:11.911Z,10.67
2023-05-25T03:22:43.162Z,10.97
2023-05-25T03:25:13.111Z,10.93
2023-05-25T03:27:41.226Z,10.87
2023-05-25T03:30:12.270Z,11.23
2023-05-25T03:32:40.562Z,11.07
2023-05-25T03:35:09.055Z,10.90
2023-05-25T03:37:38.189Z,10.40
2023-05-25T03:40:09.598Z,10.83
2023-05-25T03:42:37.966Z,10.50
2023-05-25T03:45:09.031Z,10.87
2023-05-25T03:47:39.089Z,10.37
2023-05-25T03:50:08.282Z,10.43
2023-05-25T03:52:36.545Z,11.40
2023-05-25T03:55:05.905Z,11.27
2023-05-25T03:57:33.986Z,11.27
2023-05-25T04:00:01.938Z,10.60
2023-05-25T04:02:29.900Z,11.83
2023-05-25T04:04:59.896Z,11.53
2023-05-25T04:07:30.046Z,11.00
2023-05-25T04:10:00.161Z,12.40
2023-05-25T04:12:28.350Z,11.20
2023-05-25T04:14:56.403Z,10.80
2023-05-25T04:17:25.924Z,10.83
2023-05-25T04:19:54.195Z,11.43
2023-05-25T04:22:23.462Z,11.57
2023-05-25T04:24:51.291Z,11.53
2023-05-25T04:27:20.300Z,11.57
2023-05-25T04:29:50.228Z,11.00
2023-05-25T04:32:38.566Z,11.43
2023-05-25T04:35:20.797Z,11.53
2023-05-25T04:37:51.606Z,10.30
2023-05-25T04:40:21.726Z,9.17
2023-05-25T04:42:49.937Z,9.37
2023-05-25T04:45:21.438Z,9.87
2023-05-25T04:47:49.864Z,9.90
2023-05-25T04:50:18.454Z,10.47
2023-05-25T04:52:46.347Z,10.20
2023-05-25T04:55:16.093Z,10.50
2023-05-25T04:57:45.286Z,10.40
2023-05-25T05:00:15.226Z,10.10
2023-05-25T05:02:44.083Z,10.67
2023-05-25T05:05:12.084Z,10.60
2023-05-25T05:07:41.044Z,10.57
2023-05-25T05:10:09.879Z,10.83
2023-05-25T05:12:41.549Z,10.40
2023-05-25T05:15:09.989Z,11.80
2023-05-25T05:17:39.704Z,12.43
2023-05-25T05:20:09.498Z,13.20
2023-05-25T05:22:38.805Z,12.30
2023-05-25T05:25:08.349Z,12.83
2023-05-25T05:27:36.283Z,13.55
2023-05-25T05:30:13.342Z,14.57
2023-05-25T05:32:41.570Z,13.02
2023-05-25T05:35:11.126Z,13.10
2023-05-25T05:37:43.987Z,12.45
2023-05-25T05:40:12.939Z,12.07
2023-05-25T05:42:43.098Z,12.60
2023-05-25T05:45:13.391Z,12.05
2023-05-25T05:47:41.486Z,12.25
2023-05-25T05:50:10.137Z,11.95
2023-05-25T05:52:39.629Z,12.85
2023-05-25T05:55:08.434Z,11.73
2023-05-25T05:57:39.059Z,11.48
2023-05-25T06:00:08.985Z,12.55
2023-05-25T06:02:47.367Z,10.32
2023-05-25T06:05:21.140Z,10.30
2023-05-25T06:07:49.607Z,10.25
2023-05-25T06:10:19.830Z,9.82
2023-05-25T06:12:47.719Z,10.73
2023-05-25T06:15:16.994Z,9.73
2023-05-25T06:17:48.265Z,8.93
2023-05-25T06:20:17.343Z,9.88
2023-05-25T06:22:46.563Z,10.35
2023-05-25T06:25:14.517Z,8.93
2023-05-25T06:27:42.426Z,9.52
2023-05-25T06:30:13.317Z,9.48
2023-05-25T06:32:43.356Z,9.07
2023-05-25T06:35:19.490Z,9.93
2023-05-25T06:37:49.612Z,9.05
2023-05-25T06:40:19.775Z,9.30
2023-05-25T06:42:47.861Z,9.13
2023-05-25T06:45:39.483Z,8.80
2023-05-25T06:48:07.771Z,8.23
2023-05-25T06:50:37.832Z,8.38
2023-05-25T06:53:05.903Z,9.48
2023-05-25T06:55:33.836Z,9.40
2023-05-25T06:58:01.807Z,8.93
2023-05-25T07:00:29.739Z,8.65
2023-05-25T07:02:57.708Z,8.32
2023-05-25T07:05:25.744Z,8.20
2023-05-25T07:07:55.100Z,8.50
2023-05-25T07:10:24.199Z,8.52
2023-05-25T07:12:52.452Z,8.18
2023-05-25T07:15:21.659Z,7.78
2023-05-25T07:17:50.891Z,7.47
2023-05-25T07:20:19.113Z,7.63
2023-05-25T07:22:48.437Z,7.40
2023-05-25T07:25:17.961Z,7.60
2023-05-25T07:27:50.178Z,8.10
2023-05-25T07:30:18.234Z,8.13
2023-05-25T07:32:46.474Z,6.80
2023-05-25T07:35:14.631Z,7.60
2023-05-25T07:37:42.607Z,7.32
2023-05-25T07:40:11.363Z,7.30
2023-05-25T07:42:40.686Z,6.90
2023-05-25T07:45:09.466Z,7.93
2023-05-25T07:47:37.416Z,7.53
2023-05-25T07:50:06.633Z,6.88
2023-05-25T07:52:34.583Z,6.90
2023-05-25T07:55:02.558Z,7.20
2023-05-25T07:57:30.483Z,7.10
2023-05-25T07:59:59.882Z,6.05
2023-05-25T08:02:27.870Z,6.50
2023-05-25T08:04:56.209Z,6.50
2023-05-25T08:07:24.965Z,6.57
2023-05-25T08:09:52.853Z,6.22
2023-05-25T08:14:51.751Z,6.68
2023-05-25T08:17:21.164Z,5.75
2023-05-25T08:19:49.300Z,6.47
2023-05-25T08:22:17.512Z,5.88
2023-05-25T08:24:45.434Z,6.05
2023-05-25T08:27:13.428Z,6.55
2023-05-25T08:29:41.273Z,6.72
2023-05-25T08:32:09.152Z,5.93
2023-05-25T08:34:38.508Z,5.25
2023-05-25T08:37:06.885Z,5.80
2023-05-25T08:39:34.987Z,7.20
2023-05-25T08:42:03.784Z,6.32
2023-05-25T08:44:32.303Z,7.05
2023-05-25T08:47:07.372Z,8.05
2023-05-25T08:49:39.249Z,9.30
2023-05-25T08:52:11.814Z,40.78
2023-05-25T08:54:44.162Z,13.60
2023-05-25T08:57:16.236Z,20.90
2023-05-25T08:59:48.063Z,16.00
2023-05-25T09:02:27.638Z,7.15
2023-05-25T09:04:57.164Z,6.38
2023-05-25T09:07:27.173Z,6.30
2023-05-25T09:09:55.964Z,6.05
2023-05-25T09:12:24.411Z,6.10
2023-05-25T09:14:54.653Z,5.72
2023-05-25T09:17:23.278Z,5.55
2023-05-25T09:19:52.025Z,8.40
2023-05-25T09:22:21.460Z,5.82
2023-05-25T09:24:50.269Z,6.18
2023-05-25T09:27:20.256Z,5.72
2023-05-25T09:29:49.570Z,5.85
2023-05-25T09:32:17.929Z,5.53
2023-05-25T09:34:45.931Z,6.20
2023-05-25T09:37:15.075Z,7.40
2023-05-25T09:39:45.385Z,6.05
2023-05-25T09:42:13.541Z,6.32
2023-05-25T09:44:42.687Z,8.25
2023-05-25T09:47:11.113Z,7.07
2023-05-25T09:49:39.327Z,5.68
2023-05-25T09:52:07.860Z,5.68
2023-05-25T09:54:37.519Z,4.68
2023-05-25T09:57:07.742Z,5.38
2023-05-25T09:59:35.778Z,5.75
2023-05-25T10:02:03.944Z,5.57
2023-05-25T10:04:31.841Z,6.00
2023-05-25T10:07:01.738Z,6.07
2023-05-25T10:09:30.977Z,6.00
2023-05-25T10:12:01.357Z,6.63
2023-05-25T10:14:31.273Z,5.85
2023-05-25T10:17:00.584Z,6.28
2023-05-25T10:19:34.310Z,6.07
2023-05-25T10:22:08.018Z,5.60
2023-05-25T10:24:39.982Z,5.93
2023-05-25T10:27:25.610Z,5.93
2023-05-25T10:29:57.376Z,6.43
2023-05-25T10:32:26.113Z,6.68
2023-05-25T10:34:54.676Z,6.40
2023-05-25T10:37:26.434Z,6.95
2023-05-25T10:39:57.653Z,6.63
2023-05-25T10:42:27.299Z,6.53
2023-05-25T10:44:57.454Z,6.45
2023-05-25T10:47:27.279Z,6.57
2023-05-25T10:49:57.767Z,6.55
2023-05-25T10:52:28.773Z,6.47
2023-05-25T10:54:58.122Z,6.28
2023-05-25T10:57:26.824Z,6.32
2023-05-25T11:00:01.745Z,6.72
2023-05-25T11:02:30.265Z,6.57
2023-05-25T11:05:33.185Z,6.40
2023-05-25T11:08:02.064Z,6.00
2023-05-25T11:10:54.018Z,5.70
2023-05-25T11:13:41.303Z,6.47
2023-05-25T11:16:18.031Z,6.55
2023-05-25T11:18:50.134Z,6.35
2023-05-25T11:21:24.307Z,6.65
2023-05-25T11:24:00.067Z,5.90
2023-05-25T11:26:29.889Z,6.63
2023-05-25T11:28:59.931Z,6.32
2023-05-25T11:31:38.344Z,5.90
2023-05-25T11:34:09.352Z,6.82
2023-05-25T11:36:37.618Z,5.90
2023-05-25T11:39:14.196Z,7.38
2023-05-25T11:41:51.413Z,8.15
2023-05-25T11:44:28.219Z,6.57
2023-05-25T11:46:58.461Z,6.93
2023-05-25T11:49:26.723Z,6.78
2023-05-25T11:51:54.854Z,7.53
2023-05-25T11:54:24.186Z,6.60
2023-05-25T11:56:52.392Z,5.97
2023-05-25T11:59:20.608Z,7.10
2023-05-25T12:02:03.225Z,6.18
2023-05-25T12:04:32.840Z,6.57
2023-05-25T12:07:04.722Z,6.28
2023-05-25T12:09:33.058Z,6.93
2023-05-25T12:12:02.434Z,6.88
2023-05-25T12:14:31.132Z,6.43
2023-05-25T12:16:59.370Z,6.22
2023-05-25T12:19:28.842Z,7.78
2023-05-25T12:21:56.849Z,7.32
2023-05-25T12:24:25.133Z,7.60
2023-05-25T12:26:57.312Z,6.40
2023-05-25T12:29:26.013Z,6.57
2023-05-25T12:31:54.017Z,6.40
2023-05-25T12:34:22.324Z,6.38
2023-05-25T12:36:52.991Z,6.10
2023-05-25T12:39:35.134Z,6.70
2023-05-25T12:42:03.614Z,6.57
2023-05-25T12:44:34.747Z,6.97
2023-05-25T12:47:12.770Z,6.82
2023-05-25T12:49:42.111Z,7.13
2023-05-25T12:52:12.482Z,6.88
2023-05-25T12:54:44.081Z,6.20
2023-05-25T12:57:14.255Z,6.38
2023-05-25T12:59:43.286Z,6.57
2023-05-25T13:02:11.942Z,6.75
2023-05-25T13:04:41.094Z,6.65
2023-05-25T13:07:11.766Z,7.45
2023-05-25T13:09:39.995Z,6.85
2023-05-25T13:12:08.784Z,6.60
2023-05-25T13:14:36.598Z,6.80
2023-05-25T13:17:04.937Z,6.47
2023-05-25T13:19:32.861Z,6.55
2023-05-25T13:22:00.812Z,6.55
2023-05-25T13:24:30.750Z,7.10
2023-05-25T13:26:58.681Z,6.10
2023-05-25T13:29:26.707Z,6.03
2023-05-25T13:31:54.615Z,6.90
2023-05-25T13:34:22.510Z,7.07
2023-05-25T13:36:50.362Z,6.63
2023-05-25T13:39:22.770Z,7.40
2023-05-25T13:41:53.298Z,6.78
2023-05-25T13:44:21.383Z,6.30
2023-05-25T13:46:49.787Z,6.55
2023-05-25T13:49:19.565Z,6.55
2023-05-25T13:51:47.655Z,6.75
2023-05-25T13:54:15.570Z,7.75
2023-05-25T13:56:43.697Z,7.50
2023-05-25T13:59:13.042Z,6.90
2023-05-25T14:01:41.041Z,6.70
2023-05-25T14:04:10.128Z,6.57
2023-05-25T14:06:38.139Z,6.50
2023-05-25T14:09:06.098Z,6.60
2023-05-25T14:11:33.985Z,6.45
2023-05-25T14:14:01.899Z,5.85
2023-05-25T14:16:31.259Z,5.53
2023-05-25T14:18:59.187Z,5.55
2023-05-25T14:21:27.036Z,17.23
2023-05-25T14:23:55.154Z,6.45
2023-05-25T14:26:23.203Z,6.25
2023-05-25T14:28:51.521Z,5.78
2023-05-25T14:31:19.575Z,5.25
2023-05-25T14:33:48.887Z,5.60
2023-05-25T14:36:16.792Z,5.38
2023-05-25T14:38:44.728Z,5.32
2023-05-25T14:41:12.596Z,5.10
2023-05-25T14:43:40.490Z,5.82
2023-05-25T14:46:10.180Z,5.35
2023-05-25T14:48:41.947Z,5.45
2023-05-25T14:51:11.720Z,4.95
2023-05-25T14:53:39.811Z,5.15
2023-05-25T14:56:09.730Z,4.82
2023-05-25T14:58:39.357Z,5.55
2023-05-25T15:01:07.219Z,5.68
2023-05-25T15:03:35.524Z,4.75
2023-05-25T15:06:03.849Z,4.93
2023-05-25T15:08:33.169Z,4.95
2023-05-25T15:11:01.114Z,4.13
2023-05-25T15:13:29.094Z,4.35
2023-05-25T15:15:57.786Z,4.30
2023-05-25T15:18:25.909Z,4.78
2023-05-25T15:20:53.972Z,4.00
2023-05-25T15:23:21.806Z,4.10
2023-05-25T15:25:51.098Z,4.05
2023-05-25T15:28:19.021Z,4.28
2023-05-25T15:30:47.019Z,4.40
2023-05-25T15:33:15.132Z,3.90
2023-05-25T15:35:43.563Z,4.28
2023-05-25T15:38:11.570Z,4.70
2023-05-25T15:40:39.473Z,3.95
2023-05-25T15:43:08.790Z,4.00
2023-05-25T15:45:36.715Z,4.20
2023-05-25T15:48:06.045Z,3.78
2023-05-25T15:50:33.989Z,4.30
2023-05-25T15:53:01.903Z,4.50
2023-05-25T15:55:29.913Z,4.53
2023-05-25T15:57:57.781Z,4.00
2023-05-25T16:00:27.078Z,3.97
2023-05-25T16:02:55.066Z,3.38
2023-05-25T16:05:23.157Z,4.50
2023-05-25T16:07:51.126Z,4.25
2023-05-25T16:10:19.252Z,3.67
2023-05-25T16:12:47.189Z,4.72
2023-05-25T16:15:15.230Z,4.63
2023-05-25T16:17:44.646Z,4.88
2023-05-25T16:20:13.377Z,4.72
2023-05-25T16:22:41.325Z,4.53
2023-05-25T16:25:10.426Z,5.15
2023-05-25T16:27:38.284Z,4.68
2023-05-25T16:30:07.730Z,4.93
2023-05-25T16:32:35.647Z,4.90
2023-05-25T16:35:05.557Z,4.95
2023-05-25T16:37:33.505Z,4.85
2023-05-25T16:40:01.471Z,4.57
2023-05-25T16:42:29.590Z,4.80
2023-05-25T16:44:57.508Z,4.57
2023-05-25T16:47:25.502Z,4.15
2023-05-25T16:49:53.445Z,4.38
2023-05-25T16:52:22.734Z,5.25
2023-05-25T16:54:50.650Z,4.90
2023-05-25T16:57:18.539Z,4.45
2023-05-25T16:59:46.655Z,4.88
2023-05-25T17:02:14.567Z,4.82
2023-05-25T17:04:42.494Z,4.30
2023-05-25T17:07:10.422Z,4.10
2023-05-25T17:09:39.649Z,4.32
2023-05-25T17:12:08.536Z,4.15
2023-05-25T17:14:36.404Z,3.90
2023-05-25T17:17:04.370Z,4.57
2023-05-25T17:19:32.256Z,4.20
2023-05-25T17:22:00.224Z,4.72
2023-05-25T17:24:28.122Z,3.90
2023-05-25T17:26:57.353Z,4.55
2023-05-25T17:29:25.231Z,4.10
2023-05-25T17:31:53.221Z,4.20
2023-05-25T17:34:21.196Z,4.00
2023-05-25T17:36:49.148Z,4.40
2023-05-25T17:39:17.082Z,4.13
2023-05-25T17:41:45.746Z,4.32
2023-05-25T17:44:15.127Z,4.45
2023-05-25T17:46:43.045Z,3.70
2023-05-25T17:49:10.957Z,4.13
2023-05-25T17:51:38.944Z,4.40
2023-05-25T17:54:06.995Z,4.28
2023-05-25T17:56:35.009Z,4.70
2023-05-25T17:59:03.610Z,3.92
2023-05-25T18:01:34.479Z,4.00
2023-05-25T18:04:02.667Z,3.97
2023-05-25T18:06:30.669Z,5.03
2023-05-25T18:08:58.605Z,4.55
2023-05-25T18:11:28.268Z,4.40
2023-05-25T18:13:56.194Z,4.93
2023-05-25T18:16:24.104Z,4.63
2023-05-25T18:18:53.418Z,4.30
2023-05-25T18:21:21.358Z,4.60
2023-05-25T18:23:49.358Z,4.63
2023-05-25T18:26:17.423Z,4.53
2023-05-25T18:28:45.317Z,4.72
2023-05-25T18:31:13.301Z,4.53
2023-05-25T18:33:41.470Z,4.40
2023-05-25T18:36:10.900Z,4.78
2023-05-25T18:38:38.765Z,4.00
2023-05-25T18:41:06.812Z,4.78
2023-05-25T18:43:34.615Z,3.70
2023-05-25T18:46:02.511Z,4.72
2023-05-25T18:48:30.434Z,4.00
2023-05-25T18:50:58.334Z,4.43
2023-05-25T18:53:27.551Z,4.10
2023-05-25T18:55:55.603Z,4.38
2023-05-25T18:58:23.563Z,4.68
2023-05-25T19:00:51.499Z,4.50
2023-05-25T19:03:19.475Z,4.82
2023-05-25T19:05:47.530Z,4.97
2023-05-25T19:08:15.633Z,4.70
2023-05-25T19:10:45.170Z,4.53
2023-05-25T19:13:13.063Z,4.55
2023-05-25T19:15:40.976Z,4.32
2023-05-25T19:18:08.860Z,5.07
2023-05-25T19:20:36.925Z,5.00
2023-05-25T19:23:04.898Z,4.95
2023-05-25T19:25:32.878Z,5.25
2023-05-25T19:28:02.375Z,5.30
2023-05-25T19:30:30.234Z,5.85
2023-05-25T19:32:58.092Z,5.20
2023-05-25T19:35:25.940Z,5.43
2023-05-25T19:37:53.836Z,5.13
2023-05-25T19:40:21.733Z,5.82
2023-05-25T19:42:49.502Z,6.50
2023-05-25T19:45:19.194Z,4.90
2023-05-25T19:47:47.369Z,7.88
2023-05-25T19:50:15.578Z,6.25
2023-05-25T19:52:43.417Z,6.85
2023-05-25T19:55:11.282Z,6.38
2023-05-25T19:57:39.468Z,6.68
2023-05-25T20:00:11.530Z,5.70
2023-05-25T20:02:46.687Z,6.60
2023-05-25T20:05:14.605Z,7.15
2023-05-25T20:07:43.957Z,7.40
2023-05-25T20:10:12.162Z,7.50
2023-05-25T20:12:40.092Z,8.73
2023-05-25T20:15:08.455Z,8.40
2023-05-25T20:17:36.373Z,8.50
2023-05-25T20:20:06.725Z,8.35
2023-05-25T20:22:34.563Z,8.55
2023-05-25T20:25:02.641Z,8.18
2023-05-25T20:27:30.463Z,8.35
2023-05-25T20:29:58.468Z,8.10
2023-05-25T20:32:26.330Z,8.43
2023-05-25T20:34:54.194Z,8.10
2023-05-25T20:37:23.421Z,8.95
2023-05-25T20:39:51.201Z,8.95
2023-05-25T20:42:19.076Z,8.55
2023-05-25T20:44:46.876Z,9.18
2023-05-25T20:47:14.724Z,8.63
2023-05-25T20:49:42.805Z,8.85
2023-05-25T20:52:10.666Z,9.23
2023-05-25T20:54:44.492Z,8.68
2023-05-25T20:57:12.371Z,8.50
2023-05-25T20:59:40.424Z,9.00
2023-05-25T21:02:08.824Z,8.85
2023-05-25T21:04:36.710Z,9.05
2023-05-25T21:07:04.729Z,9.13
2023-05-25T21:09:32.593Z,8.77
2023-05-25T21:12:03.499Z,9.05
2023-05-25T21:14:31.264Z,8.05
2023-05-25T21:16:59.134Z,8.45
2023-05-25T21:19:26.966Z,8.65
2023-05-25T21:21:54.819Z,8.18
2023-05-25T21:24:22.670Z,8.50
2023-05-25T21:26:50.493Z,8.68
2023-05-25T21:29:19.659Z,7.93
2023-05-25T21:31:47.705Z,8.77
2023-05-25T21:34:15.620Z,8.13
2023-05-25T21:36:43.686Z,8.75
2023-05-25T21:39:11.546Z,8.85
2023-05-25T21:41:39.337Z,7.95
2023-05-25T21:44:07.165Z,8.85
2023-05-25T21:46:36.455Z,9.48
2023-05-25T21:49:04.374Z,8.40
2023-05-25T21:51:32.848Z,9.25
2023-05-25T21:54:01.077Z,9.43
2023-05-25T21:56:28.992Z,8.50
2023-05-25T21:58:56.758Z,9.57
2023-05-25T22:01:24.817Z,9.05
2023-05-25T22:03:53.949Z,9.30
2023-05-25T22:06:21.711Z,9.00
2023-05-25T22:08:49.522Z,9.10
2023-05-25T22:11:17.296Z,8.88
2023-05-25T22:13:45.103Z,8.57
2023-05-25T22:16:12.946Z,9.43
2023-05-25T22:18:40.798Z,9.18
2023-05-25T22:21:10.003Z,8.55
2023-05-25T22:23:37.812Z,9.23
2023-05-25T22:26:05.603Z,8.25
2023-05-25T22:28:33.433Z,8.75
2023-05-25T22:31:01.242Z,8.23
2023-05-25T22:33:29.013Z,8.82
2023-05-25T22:35:56.826Z,8.10
2023-05-25T22:38:26.116Z,7.90
2023-05-25T22:40:53.940Z,8.75
2023-05-25T22:43:21.856Z,7.55
2023-05-25T22:45:49.809Z,7.80
2023-05-25T22:48:17.658Z,7.22
2023-05-25T22:50:45.509Z,7.22
2023-05-25T22:53:13.337Z,7.57
2023-05-25T22:55:43.345Z,7.47
2023-05-25T22:58:11.823Z,7.03
2023-05-25T23:00:39.623Z,6.95
2023-05-25T23:03:07.486Z,5.93
2023-05-25T23:05:35.320Z,7.40
2023-05-25T23:08:03.701Z,6.72
2023-05-25T23:10:31.518Z,7.63
2023-05-25T23:13:01.044Z,7.18
2023-05-25T23:15:30.708Z,5.93
2023-05-25T23:17:58.617Z,7.32
2023-05-25T23:20:26.507Z,6.93
2023-05-25T23:22:54.438Z,6.85
2023-05-25T23:25:22.343Z,7.85
2023-05-25T23:27:50.129Z,7.00
2023-05-25T23:30:19.527Z,6.60
2023-05-25T23:32:47.362Z,6.72
2023-05-25T23:35:15.372Z,7.13
2023-05-25T23:37:43.979Z,6.70
2023-05-25T23:40:12.092Z,6.70
2023-05-25T23:42:41.323Z,6.80
2023-05-25T23:45:10.217Z,6.23
2023-05-25T23:47:39.389Z,6.50
2023-05-25T23:50:07.967Z,6.35
2023-05-25T23:52:35.902Z,6.38
2023-05-25T23:55:03.739Z,6.77
2023-05-25T23:57:31.585Z,6.17
2023-05-25T23:59:59.400Z,6.83
